Archival Weather

Ahwaz

Ahwaz, Iran (OIAW)

Report from: Sunday, October 1, 2023 8:30 PM +0330
Current time: Friday, July 19, 2024 6:20 AM +0330

Current weather – Weather history – Daily summaries
Weather forecast

Temperature34.0°C (93.2°F)
Heat index31.9°C (89.4°F)
Dew point7.0°C (44.6°F)
Winds 4 kts (2.1 m/s, 4.6 mph) West (270°)
Clouds Sky clear
Altimeter29.77 in.Hg (1008 mB)
Relative humidity19 %
Density altitude2,483 ft. (757 m)
Remarks Ceiling and visibility OK
Flight conditions Visual Meteorological Conditions
Raw dataOIAW 011700Z 27004KT CAVOK 34/07 Q1008
An error has occurred. This application may no longer respond until reloaded. Reload 🗙